createdAt,value
2017-11-08T00:00:33.434Z,13.07
2017-11-08T00:03:01.565Z,10.60
2017-11-08T00:05:29.703Z,15.40
2017-11-08T00:08:04.444Z,10.13
2017-11-08T00:10:32.747Z,9.30
2017-11-08T00:13:00.990Z,9.57
2017-11-08T00:15:29.897Z,8.70
2017-11-08T00:17:58.793Z,7.47
2017-11-08T00:20:27.701Z,13.43
2017-11-08T00:22:55.870Z,7.50
2017-11-08T00:25:24.009Z,8.60
2017-11-08T00:27:52.159Z,9.10
2017-11-08T00:30:20.295Z,9.67
2017-11-08T00:32:48.409Z,8.60
2017-11-08T00:35:17.707Z,8.50
2017-11-08T00:37:45.967Z,8.20
2017-11-08T00:40:14.196Z,8.37
2017-11-08T00:42:42.625Z,8.53
2017-11-08T00:45:10.731Z,10.67
2017-11-08T00:47:38.852Z,10.50
2017-11-08T00:50:06.958Z,12.50
2017-11-08T00:52:35.073Z,10.10
2017-11-08T00:55:07.530Z,9.83
2017-11-08T00:57:36.830Z,9.43
2017-11-08T01:00:08.186Z,7.10
2017-11-08T01:02:37.174Z,12.57
2017-11-08T01:05:06.179Z,10.17
2017-11-08T01:07:34.371Z,10.13
2017-11-08T01:10:02.505Z,11.60
2017-11-08T01:12:30.635Z,10.63
2017-11-08T01:14:59.515Z,9.17
2017-11-08T01:17:28.378Z,9.70
2017-11-08T01:19:57.278Z,12.53
2017-11-08T01:22:25.407Z,10.70
2017-11-08T01:24:54.325Z,12.67
2017-11-08T01:27:22.459Z,9.33
2017-11-08T01:29:51.351Z,7.63
2017-11-08T01:32:19.518Z,9.33
2017-11-08T01:34:47.642Z,8.27
2017-11-08T01:37:22.237Z,10.60
2017-11-08T01:39:50.351Z,10.27
2017-11-08T01:42:18.485Z,6.77
2017-11-08T01:44:48.360Z,10.80
2017-11-08T01:47:17.227Z,10.80
2017-11-08T01:49:48.481Z,9.03
2017-11-08T01:52:16.743Z,11.23
2017-11-08T01:54:44.844Z,10.90
2017-11-08T01:57:13.896Z,11.10
2017-11-08T01:59:41.984Z,7.27
2017-11-08T02:02:10.124Z,10.97
2017-11-08T02:04:38.211Z,13.03
2017-11-08T02:07:08.027Z,9.20
2017-11-08T02:09:36.171Z,8.10
2017-11-08T02:12:04.282Z,10.13
2017-11-08T02:14:32.471Z,13.17
2017-11-08T02:17:00.715Z,9.87
2017-11-08T02:19:28.882Z,11.20
2017-11-08T02:21:56.999Z,11.07
2017-11-08T02:24:28.096Z,11.10
2017-11-08T02:27:02.654Z,11.30
2017-11-08T02:29:30.877Z,9.20
2017-11-08T02:31:59.250Z,14.17
2017-11-08T02:34:28.319Z,13.73
2017-11-08T02:36:56.481Z,15.33
2017-11-08T02:39:24.638Z,14.50
2017-11-08T02:41:52.819Z,10.67
2017-11-08T02:44:20.937Z,12.70
2017-11-08T02:46:50.738Z,10.40
2017-11-08T02:49:19.680Z,11.43
2017-11-08T02:51:47.870Z,11.17
2017-11-08T02:54:16.030Z,12.37
2017-11-08T02:56:44.173Z,11.93
2017-11-08T02:59:13.286Z,13.40
2017-11-08T03:01:41.872Z,9.67
2017-11-08T03:04:10.013Z,14.20
2017-11-08T03:06:38.180Z,12.80
2017-11-08T03:09:06.314Z,12.17
2017-11-08T03:11:34.430Z,10.77
2017-11-08T03:14:02.578Z,12.70
2017-11-08T03:16:31.702Z,16.77
2017-11-08T03:18:59.880Z,13.67
2017-11-08T03:21:28.005Z,14.27
2017-11-08T03:23:56.887Z,15.33
2017-11-08T03:26:25.038Z,14.37
2017-11-08T03:28:53.141Z,15.15
2017-11-08T03:31:21.339Z,13.00
2017-11-08T03:33:50.223Z,14.10
2017-11-08T03:36:19.119Z,17.60
2017-11-08T03:38:47.266Z,15.37
2017-11-08T03:41:15.409Z,14.47
2017-11-08T03:43:43.612Z,14.83
2017-11-08T03:46:11.763Z,13.73
2017-11-08T03:48:39.952Z,15.80
2017-11-08T03:51:08.152Z,12.53
2017-11-08T03:53:37.284Z,14.80
2017-11-08T03:56:05.470Z,14.63
2017-11-08T03:58:33.605Z,16.83
2017-11-08T04:01:01.718Z,14.77
2017-11-08T04:03:30.581Z,17.73
2017-11-08T04:05:58.838Z,16.00
2017-11-08T04:08:27.103Z,17.57
2017-11-08T04:10:55.338Z,14.93
2017-11-08T04:13:24.579Z,16.83
2017-11-08T04:15:53.161Z,16.53
2017-11-08T04:18:24.376Z,16.07
2017-11-08T04:20:52.551Z,23.47
2017-11-08T04:23:20.774Z,17.10
2017-11-08T04:25:48.979Z,18.83
2017-11-08T04:28:17.138Z,23.10
2017-11-08T04:30:45.343Z,20.20
2017-11-08T04:33:13.493Z,21.17
2017-11-08T04:35:41.661Z,18.90
2017-11-08T04:38:10.584Z,17.90
2017-11-08T04:40:38.714Z,21.00
2017-11-08T04:43:06.841Z,23.70
2017-11-08T04:45:34.991Z,19.53
2017-11-08T04:48:04.072Z,21.03
2017-11-08T04:50:32.393Z,28.47
2017-11-08T04:53:00.498Z,28.47
2017-11-08T04:55:28.627Z,26.23
2017-11-08T04:57:57.494Z,28.13
2017-11-08T05:00:25.643Z,29.17
2017-11-08T05:02:53.773Z,27.60
2017-11-08T05:05:21.865Z,27.97
2017-11-08T05:07:50.995Z,24.97
2017-11-08T05:10:19.132Z,32.77
2017-11-08T05:12:47.282Z,29.70
2017-11-08T05:15:15.412Z,28.60
2017-11-08T05:17:43.534Z,33.30
2017-11-08T05:20:11.894Z,29.90
2017-11-08T05:22:40.025Z,36.87
2017-11-08T05:25:08.241Z,29.30
2017-11-08T05:27:36.398Z,34.13
2017-11-08T05:30:06.707Z,28.17
2017-11-08T05:32:34.895Z,30.27
2017-11-08T05:35:03.146Z,28.90
2017-11-08T05:37:32.054Z,35.63
2017-11-08T05:40:00.167Z,34.27
2017-11-08T05:42:28.325Z,29.30
2017-11-08T05:44:56.478Z,35.60
2017-11-08T05:47:24.711Z,29.17
2017-11-08T05:49:52.829Z,30.57
2017-11-08T05:52:21.035Z,30.87
2017-11-08T05:54:49.346Z,32.93
2017-11-08T05:57:18.399Z,33.73
2017-11-08T05:59:46.712Z,31.93
2017-11-08T06:02:14.826Z,33.40
2017-11-08T06:04:43.738Z,35.13
2017-11-08T06:07:11.867Z,37.10
2017-11-08T06:09:40.175Z,35.90
2017-11-08T06:12:08.310Z,37.10
2017-11-08T06:14:36.389Z,40.70
2017-11-08T06:17:04.508Z,29.60
2017-11-08T06:19:32.612Z,33.07
2017-11-08T06:22:00.763Z,37.60
2017-11-08T06:24:28.870Z,29.30
2017-11-08T06:26:57.387Z,33.80
2017-11-08T06:29:25.588Z,30.40
2017-11-08T06:31:54.611Z,42.27
2017-11-08T06:34:22.744Z,32.30
2017-11-08T06:36:51.016Z,32.73
2017-11-08T06:41:57.509Z,36.20
2017-11-08T06:44:25.616Z,36.57
2017-11-08T06:46:53.737Z,35.63
2017-11-08T06:49:22.719Z,37.00
2017-11-08T06:51:51.614Z,30.97
2017-11-08T06:54:20.151Z,32.33
2017-11-08T06:56:48.360Z,29.43
2017-11-08T06:59:17.370Z,33.27
2017-11-08T07:01:45.515Z,32.17
2017-11-08T07:04:13.625Z,31.47
2017-11-08T07:06:41.768Z,30.50
2017-11-08T07:09:10.194Z,29.90
2017-11-08T07:11:38.330Z,29.20
2017-11-08T07:14:06.516Z,32.53
2017-11-08T07:16:34.679Z,30.63
2017-11-08T07:19:03.215Z,28.03
2017-11-08T07:21:31.859Z,33.70
2017-11-08T07:24:00.869Z,34.57
2017-11-08T07:26:29.109Z,32.57
2017-11-08T07:28:57.293Z,28.23
2017-11-08T07:31:26.975Z,28.43
2017-11-08T07:33:58.206Z,29.57
2017-11-08T07:39:15.865Z,28.87
2017-11-08T07:41:43.962Z,25.23
2017-11-08T07:44:12.126Z,32.33
2017-11-08T07:46:40.496Z,32.33
2017-11-08T07:49:08.658Z,33.40
2017-11-08T07:51:37.779Z,30.30
2017-11-08T07:54:12.031Z,27.37
2017-11-08T07:56:40.411Z,31.03
2017-11-08T07:59:09.821Z,31.67
2017-11-08T08:01:38.015Z,28.33
2017-11-08T08:04:06.157Z,34.50
2017-11-08T08:06:34.341Z,31.63
2017-11-08T08:09:02.489Z,32.90
2017-11-08T08:11:31.418Z,33.23
2017-11-08T08:13:59.540Z,34.30
2017-11-08T08:16:27.903Z,31.90
2017-11-08T08:18:56.067Z,36.93
2017-11-08T08:21:25.304Z,32.90
2017-11-08T08:23:54.416Z,36.37
2017-11-08T08:26:29.200Z,30.90
2017-11-08T08:28:58.557Z,32.50
2017-11-08T08:31:26.688Z,33.70
2017-11-08T08:33:54.837Z,35.00
2017-11-08T08:36:24.044Z,32.67
2017-11-08T08:41:54.122Z,32.67
2017-11-08T08:44:22.382Z,30.30
2017-11-08T08:46:50.628Z,31.73
2017-11-08T08:49:18.730Z,34.80
2017-11-08T08:52:01.014Z,32.07
2017-11-08T08:54:29.200Z,33.07
2017-11-08T08:56:58.103Z,35.27
2017-11-08T08:59:31.018Z,32.87
2017-11-08T09:01:59.116Z,30.70
2017-11-08T09:04:27.627Z,33.87
2017-11-08T09:06:55.906Z,33.40
2017-11-08T09:09:24.156Z,36.53
2017-11-08T09:11:52.273Z,36.97
2017-11-08T09:14:20.773Z,40.13
2017-11-08T09:16:51.636Z,32.60
2017-11-08T09:19:20.111Z,36.83
2017-11-08T09:21:48.343Z,38.70
2017-11-08T09:24:19.291Z,40.20
2017-11-08T09:26:47.442Z,42.20
2017-11-08T09:29:17.571Z,35.63
2017-11-08T09:31:45.868Z,33.67
2017-11-08T09:34:17.521Z,41.43
2017-11-08T09:36:45.643Z,37.97
2017-11-08T09:39:13.778Z,41.33
2017-11-08T09:41:41.916Z,38.57
2017-11-08T09:44:10.106Z,38.70
2017-11-08T09:46:38.232Z,33.83
2017-11-08T09:49:09.069Z,40.13
2017-11-08T09:51:37.288Z,36.70
2017-11-08T09:54:09.243Z,38.37
2017-11-08T09:56:38.181Z,40.70
2017-11-08T09:59:06.937Z,35.83
2017-11-08T10:01:42.854Z,35.80
2017-11-08T10:04:11.085Z,38.60
2017-11-08T10:06:40.154Z,37.30
2017-11-08T10:09:24.028Z,40.87
2017-11-08T10:11:52.873Z,36.27
2017-11-08T10:14:21.218Z,42.80
2017-11-08T10:16:49.395Z,39.77
2017-11-08T10:19:17.513Z,39.13
2017-11-08T10:21:46.427Z,36.97
2017-11-08T10:24:14.598Z,41.90
2017-11-08T10:26:42.728Z,38.90
2017-11-08T10:29:11.721Z,38.13
2017-11-08T10:31:39.931Z,37.20
2017-11-08T10:34:08.054Z,38.63
2017-11-08T10:36:38.084Z,41.00
2017-11-08T10:39:06.225Z,41.60
2017-11-08T10:41:34.401Z,38.30
2017-11-08T10:44:02.564Z,47.03
2017-11-08T10:46:31.457Z,37.43
2017-11-08T10:49:05.366Z,38.80
2017-11-08T10:51:33.482Z,41.20
2017-11-08T10:54:03.042Z,33.60
2017-11-08T10:56:31.176Z,37.87
2017-11-08T10:59:01.143Z,39.40
2017-11-08T11:01:29.553Z,39.70
2017-11-08T11:03:58.143Z,40.47
2017-11-08T11:06:26.568Z,44.80
2017-11-08T11:08:55.467Z,39.40
2017-11-08T11:11:24.512Z,40.53
2017-11-08T11:13:58.256Z,39.23
2017-11-08T11:16:29.692Z,38.57
2017-11-08T11:18:59.934Z,42.13
2017-11-08T11:21:28.923Z,40.20
2017-11-08T11:24:07.967Z,38.40
2017-11-08T11:26:41.867Z,38.43
2017-11-08T11:29:22.213Z,40.30
2017-11-08T11:31:50.411Z,41.13
2017-11-08T11:37:04.150Z,39.57
2017-11-08T11:39:36.751Z,37.57
2017-11-08T11:42:05.994Z,36.23
2017-11-08T11:44:34.761Z,36.03
2017-11-08T11:47:02.897Z,41.10
2017-11-08T11:49:37.291Z,42.50
2017-11-08T11:52:05.449Z,42.57
2017-11-08T11:54:40.316Z,40.10
2017-11-08T11:57:08.557Z,35.40
2017-11-08T11:59:37.061Z,39.03
2017-11-08T12:02:16.817Z,36.93
2017-11-08T12:04:45.344Z,41.10
2017-11-08T12:07:14.231Z,41.70
2017-11-08T12:09:42.607Z,38.17
2017-11-08T12:12:10.825Z,33.50
2017-11-08T12:14:39.126Z,37.03
2017-11-08T12:17:07.687Z,34.07
2017-11-08T12:19:37.701Z,38.07
2017-11-08T12:22:06.693Z,38.57
2017-11-08T12:24:35.643Z,36.07
2017-11-08T12:27:05.607Z,32.17
2017-11-08T12:29:36.275Z,32.37
2017-11-08T12:32:04.447Z,38.20
2017-11-08T12:34:32.580Z,29.90
2017-11-08T12:37:01.096Z,30.43
2017-11-08T12:39:29.244Z,35.00
2017-11-08T12:42:03.250Z,30.77
2017-11-08T12:44:36.173Z,33.23
2017-11-08T12:47:05.329Z,35.40
2017-11-08T12:49:33.484Z,32.30
2017-11-08T12:52:01.681Z,31.13
2017-11-08T12:54:30.611Z,31.47
2017-11-08T12:56:59.311Z,30.33
2017-11-08T12:59:27.474Z,28.50
2017-11-08T13:01:55.604Z,32.60
2017-11-08T13:04:23.806Z,28.10
2017-11-08T13:06:52.729Z,28.40
2017-11-08T13:09:21.691Z,28.10
2017-11-08T13:11:49.826Z,30.37
2017-11-08T13:14:19.347Z,32.87
2017-11-08T13:16:48.235Z,31.20
2017-11-08T13:19:16.450Z,25.47
2017-11-08T13:21:45.324Z,29.57
2017-11-08T13:24:13.464Z,28.27
2017-11-08T13:26:41.639Z,28.77
2017-11-08T13:29:11.132Z,24.93
2017-11-08T13:31:39.287Z,28.53
2017-11-08T13:34:09.582Z,25.17
2017-11-08T13:36:37.850Z,26.90
2017-11-08T13:39:06.795Z,22.60
2017-11-08T13:41:34.975Z,26.17
2017-11-08T13:44:03.967Z,25.17
2017-11-08T13:46:32.131Z,24.97
2017-11-08T13:49:00.267Z,24.47
2017-11-08T13:51:28.453Z,22.13
2017-11-08T13:53:56.576Z,21.37
2017-11-08T13:56:24.683Z,19.17
2017-11-08T13:58:52.823Z,23.10
2017-11-08T14:01:21.069Z,24.77
2017-11-08T14:03:49.252Z,20.60
2017-11-08T14:06:17.567Z,23.77
2017-11-08T14:08:46.489Z,23.20
2017-11-08T14:11:16.501Z,23.47
2017-11-08T14:13:44.679Z,21.67
2017-11-08T14:16:12.852Z,25.37
2017-11-08T14:18:44.520Z,25.17
2017-11-08T14:21:13.460Z,25.07
2017-11-08T14:23:41.833Z,24.37
2017-11-08T14:26:10.057Z,24.67
2017-11-08T14:28:38.188Z,22.07
2017-11-08T14:31:12.332Z,25.33
2017-11-08T14:33:41.487Z,22.27
2017-11-08T14:36:13.075Z,25.80
2017-11-08T14:38:50.945Z,27.07
2017-11-08T14:41:23.276Z,23.53
2017-11-08T14:43:51.515Z,25.50
2017-11-08T14:46:19.695Z,26.23
2017-11-08T14:48:47.819Z,27.67
2017-11-08T14:51:15.960Z,25.90
2017-11-08T14:53:44.861Z,25.40
2017-11-08T14:56:12.999Z,27.23
2017-11-08T14:58:41.593Z,33.57
2017-11-08T15:01:10.774Z,26.63
2017-11-08T15:03:38.902Z,24.53
2017-11-08T15:06:07.888Z,27.73
2017-11-08T15:08:37.785Z,26.50
2017-11-08T15:11:06.691Z,28.77
2017-11-08T15:13:34.853Z,27.93
2017-11-08T15:16:06.936Z,27.40
2017-11-08T15:18:37.326Z,26.97
2017-11-08T15:21:09.778Z,31.33
2017-11-08T15:23:38.014Z,28.83
2017-11-08T15:26:06.289Z,24.80
2017-11-08T15:28:34.682Z,21.67
2017-11-08T15:31:06.110Z,28.30
2017-11-08T15:33:35.083Z,25.27
2017-11-08T15:36:03.203Z,26.70
2017-11-08T15:38:31.444Z,28.30
2017-11-08T15:40:59.633Z,24.70
2017-11-08T15:43:27.776Z,25.90
2017-11-08T15:45:56.013Z,27.77
2017-11-08T15:48:31.114Z,25.10
2017-11-08T15:50:59.390Z,27.40
2017-11-08T15:53:27.602Z,26.00
2017-11-08T15:55:57.699Z,29.27
2017-11-08T15:58:26.086Z,30.60
2017-11-08T16:00:54.265Z,28.13
2017-11-08T16:03:22.384Z,28.77
2017-11-08T16:05:50.529Z,29.33
2017-11-08T16:08:18.719Z,27.20
2017-11-08T16:10:51.021Z,27.07
2017-11-08T16:13:20.866Z,29.17
2017-11-08T16:15:49.055Z,27.87
2017-11-08T16:18:17.586Z,26.10
2017-11-08T16:20:46.244Z,25.77
2017-11-08T16:23:14.387Z,24.80
2017-11-08T16:25:42.524Z,31.70
2017-11-08T16:28:19.390Z,33.23
2017-11-08T16:30:47.614Z,30.03
2017-11-08T16:33:17.620Z,28.80
2017-11-08T16:35:45.824Z,30.77
2017-11-08T16:38:14.219Z,28.67
2017-11-08T16:40:42.348Z,29.70
2017-11-08T16:43:10.536Z,29.30
2017-11-08T16:45:38.688Z,25.60
2017-11-08T16:48:06.810Z,30.63
2017-11-08T16:50:34.997Z,25.73
2017-11-08T16:53:03.348Z,28.63
2017-11-08T16:55:33.146Z,25.63
2017-11-08T16:58:01.320Z,29.37
2017-11-08T17:00:29.508Z,27.70
2017-11-08T17:02:57.679Z,25.30
2017-11-08T17:05:29.616Z,30.40
2017-11-08T17:07:58.563Z,30.53
2017-11-08T17:10:28.963Z,30.33
2017-11-08T17:12:57.658Z,26.20
2017-11-08T17:15:27.670Z,29.37
2017-11-08T17:17:56.150Z,27.43
2017-11-08T17:20:24.313Z,31.57
2017-11-08T17:22:52.516Z,28.90
2017-11-08T17:25:20.650Z,27.47
2017-11-08T17:27:48.900Z,24.30
2017-11-08T17:30:17.085Z,27.73
2017-11-08T17:32:45.184Z,31.53
2017-11-08T17:35:13.353Z,27.27
2017-11-08T17:37:41.483Z,32.27
2017-11-08T17:40:09.570Z,27.73
2017-11-08T17:42:37.679Z,29.73
2017-11-08T17:45:06.694Z,32.73
2017-11-08T17:47:34.840Z,27.77
2017-11-08T17:50:03.049Z,29.03
2017-11-08T17:52:31.196Z,28.67
2017-11-08T17:54:59.292Z,30.30
2017-11-08T17:57:27.464Z,30.73
2017-11-08T17:59:55.690Z,30.33
2017-11-08T18:02:24.190Z,30.70
2017-11-08T18:04:52.732Z,31.67
2017-11-08T18:07:21.200Z,29.00
2017-11-08T18:09:50.197Z,27.93
2017-11-08T18:12:20.025Z,27.93
2017-11-08T18:14:48.129Z,31.87
2017-11-08T18:17:20.672Z,31.77
2017-11-08T18:19:48.892Z,31.00
2017-11-08T18:22:17.156Z,28.90
2017-11-08T18:24:45.340Z,31.17
2017-11-08T18:27:13.499Z,28.60
2017-11-08T18:29:41.684Z,31.87
2017-11-08T18:32:09.896Z,26.33
2017-11-08T18:34:38.031Z,32.43
2017-11-08T18:37:06.215Z,32.87
2017-11-08T18:39:34.317Z,32.33
2017-11-08T18:42:02.423Z,29.33
2017-11-08T18:44:30.596Z,29.80
2017-11-08T18:46:58.743Z,32.20
2017-11-08T18:49:26.984Z,29.97
2017-11-08T18:51:55.157Z,28.97
2017-11-08T18:54:23.300Z,30.30
2017-11-08T18:56:55.394Z,29.90
2017-11-08T18:59:27.772Z,27.63
2017-11-08T19:01:55.881Z,33.03
2017-11-08T19:04:24.099Z,29.67
2017-11-08T19:06:52.226Z,33.63
2017-11-08T19:09:20.367Z,33.90
2017-11-08T19:11:48.478Z,33.80
2017-11-08T19:14:17.558Z,33.57
2017-11-08T19:16:46.496Z,32.10
2017-11-08T19:19:14.729Z,31.80
2017-11-08T19:21:42.836Z,33.00
2017-11-08T19:24:11.725Z,29.23
2017-11-08T19:26:39.889Z,36.00
2017-11-08T19:29:07.998Z,31.07
2017-11-08T19:31:36.190Z,30.80
2017-11-08T19:34:05.090Z,32.33
2017-11-08T19:36:33.223Z,32.60
2017-11-08T19:39:01.376Z,34.20
2017-11-08T19:41:29.536Z,34.60
2017-11-08T19:43:58.488Z,30.17
2017-11-08T19:46:26.649Z,33.87
2017-11-08T19:48:54.792Z,33.67
2017-11-08T19:51:22.972Z,31.03
2017-11-08T19:53:51.196Z,35.87
2017-11-08T19:56:20.202Z,33.80
2017-11-08T19:58:48.308Z,31.97
2017-11-08T20:01:16.501Z,35.87
2017-11-08T20:03:57.813Z,32.30
2017-11-08T20:06:26.110Z,31.90
2017-11-08T20:08:54.223Z,35.37
2017-11-08T20:11:22.383Z,34.10
2017-11-08T20:13:50.742Z,34.90
2017-11-08T20:16:19.115Z,41.67
2017-11-08T20:18:47.971Z,32.20
2017-11-08T20:21:17.107Z,35.27
2017-11-08T20:23:48.879Z,33.37
2017-11-08T20:26:17.066Z,36.47
2017-11-08T20:28:45.492Z,36.20
2017-11-08T20:31:13.581Z,37.07
2017-11-08T20:33:43.720Z,36.80
2017-11-08T20:36:11.841Z,36.57
2017-11-08T20:38:39.959Z,36.17
2017-11-08T20:41:08.346Z,35.73
2017-11-08T20:43:47.313Z,32.53
2017-11-08T20:46:15.442Z,36.60
2017-11-08T20:48:43.625Z,35.57
2017-11-08T20:51:11.743Z,35.90
2017-11-08T20:53:39.861Z,36.07
2017-11-08T20:56:08.001Z,36.90
2017-11-08T20:58:47.921Z,39.43
2017-11-08T21:01:17.972Z,40.17
2017-11-08T21:03:51.763Z,36.67
2017-11-08T21:06:19.938Z,41.17
2017-11-08T21:08:48.893Z,39.30
2017-11-08T21:11:17.148Z,35.30
2017-11-08T21:13:45.273Z,36.00
2017-11-08T21:16:14.520Z,34.83
2017-11-08T21:18:42.672Z,37.30
2017-11-08T21:21:10.902Z,35.80
2017-11-08T21:23:39.063Z,37.13
2017-11-08T21:26:08.075Z,36.87
2017-11-08T21:28:36.236Z,34.30
2017-11-08T21:31:05.290Z,37.00
2017-11-08T21:33:35.128Z,33.50
2017-11-08T21:36:03.299Z,35.20
2017-11-08T21:38:31.434Z,35.47
2017-11-08T21:40:59.558Z,36.00
2017-11-08T21:43:27.699Z,35.67
2017-11-08T21:45:56.577Z,36.33
2017-11-08T21:48:28.085Z,40.87
2017-11-08T21:50:56.212Z,39.57
2017-11-08T21:53:25.549Z,37.50
2017-11-08T21:55:53.760Z,36.70
2017-11-08T21:58:22.062Z,37.77
2017-11-08T22:00:50.617Z,36.10
2017-11-08T22:03:19.896Z,39.57
2017-11-08T22:05:48.355Z,38.00
2017-11-08T22:08:16.510Z,36.23
2017-11-08T22:10:44.627Z,35.90
2017-11-08T22:13:12.748Z,43.17
2017-11-08T22:15:40.868Z,37.57
2017-11-08T22:18:08.992Z,37.53
2017-11-08T22:20:52.020Z,34.83
2017-11-08T22:26:20.617Z,38.20
2017-11-08T22:28:48.760Z,35.60
2017-11-08T22:31:17.950Z,38.17
2017-11-08T22:33:46.083Z,36.10
2017-11-08T22:36:14.256Z,39.17
2017-11-08T22:38:42.388Z,41.87
2017-11-08T22:41:10.499Z,37.83
2017-11-08T22:43:38.612Z,41.67
2017-11-08T22:46:06.805Z,40.33
2017-11-08T22:48:35.903Z,41.03
2017-11-08T22:51:04.791Z,40.43
2017-11-08T22:53:33.658Z,39.00
2017-11-08T22:56:01.789Z,41.10
2017-11-08T22:58:29.908Z,37.20
2017-11-08T23:00:58.096Z,40.70
2017-11-08T23:03:26.211Z,37.43
2017-11-08T23:05:54.409Z,35.27
2017-11-08T23:08:23.608Z,41.03
2017-11-08T23:10:51.850Z,37.80
2017-11-08T23:13:20.017Z,41.90
2017-11-08T23:15:49.130Z,41.07
2017-11-08T23:18:17.239Z,40.40
2017-11-08T23:20:45.384Z,37.60
2017-11-08T23:23:13.491Z,38.27
2017-11-08T23:25:47.184Z,40.07
2017-11-08T23:28:16.152Z,43.93
2017-11-08T23:30:49.979Z,37.70
2017-11-08T23:33:18.107Z,34.40
2017-11-08T23:35:47.072Z,42.50
2017-11-08T23:38:15.159Z,34.23
2017-11-08T23:40:43.390Z,40.17
2017-11-08T23:43:12.607Z,36.23
2017-11-08T23:45:40.746Z,40.90
2017-11-08T23:48:09.749Z,36.50
2017-11-08T23:50:39.898Z,35.80
2017-11-08T23:53:10.820Z,38.50
2017-11-08T23:55:39.203Z,39.10
2017-11-08T23:58:07.338Z,36.43
